Observation data for Saint Lawrence on 08/20/2019      Previous  Date       Current Mesonet Observations  Soil Data  Daily Summary Page  Observations in Plain Language
KST1 200500Z 14005KT 27/12 A3005 RMK A01 T02660120  RH  041%=      5-min Rain = 0
KST1 200505Z 14006KT 26/12 A3005 RMK A01 T02630119  RH  042%=      5-min Rain = 0
KST1 200510Z 14006KT 26/12 A3005 RMK A01 T02600119  RH  042%=      5-min Rain = 0
KST1 200515Z 14006KT 26/12 A3005 RMK A01 T02580118  RH  043%=      5-min Rain = 0
KST1 200520Z 15006KT 26/12 A3005 RMK A01 T02560118  RH  043%=      5-min Rain = 0
KST1 200525Z 15005KT 25/12 A3006 RMK A01 T02540118  RH  043%=      5-min Rain = 0
KST1 200530Z 15006KT 25/12 A3006 RMK A01 T02530117  RH  044%=      5-min Rain = 0
KST1 200535Z 15006KT 25/12 A3006 RMK A01 T02520117  RH  044%=      5-min Rain = 0
KST1 200540Z 14006KT 25/12 A3006 RMK A01 T02500117  RH  044%=      5-min Rain = 0
KST1 200545Z 14006KT 25/12 A3006 RMK A01 T02470117  RH  045%=      5-min Rain = 0
KST1 200550Z 14007KT 25/12 A3006 RMK A01 T02460117  RH  045%=      5-min Rain = 0
KST1 200555Z 14007KT 25/12 A3006 RMK A01 T02470117  RH  045%=      5-min Rain = 0
KST1 200600Z 15006KT 25/12 A3006 RMK A01 T02470116  RH  045%=      5-min Rain = 0
KST1 200605Z 15006KT 25/12 A3006 RMK A01 T02470116  RH  045%=      5-min Rain = 0
KST1 200610Z 15006KT 25/12 A3006 RMK A01 T02460117  RH  045%=      5-min Rain = 0
KST1 200615Z 15005KT 24/12 A3006 RMK A01 T02440117  RH  046%=      5-min Rain = 0
KST1 200620Z 15005KT 24/12 A3006 RMK A01 T02420118  RH  046%=      5-min Rain = 0
KST1 200625Z 15005KT 24/12 A3006 RMK A01 T02400118  RH  047%=      5-min Rain = 0
KST1 200630Z 15006KT 24/12 A3006 RMK A01 T02380118  RH  048%=      5-min Rain = 0
KST1 200635Z 14006KT 24/12 A3006 RMK A01 T02370118  RH  048%=      5-min Rain = 0
KST1 200640Z 14006KT 24/12 A3006 RMK A01 T02360118  RH  048%=      5-min Rain = 0
KST1 200645Z 14007KT 24/12 A3006 RMK A01 T02360117  RH  048%=      5-min Rain = 0
KST1 200650Z 14007KT 24/12 A3006 RMK A01 T02350116  RH  048%=      5-min Rain = 0
KST1 200655Z 14007KT 23/12 A3006 RMK A01 T02340116  RH  048%=      5-min Rain = 0
KST1 200700Z 15006KT 23/12 A3005 RMK A01 T02330115  RH  048%=      5-min Rain = 0
KST1 200705Z 15006KT 23/12 A3005 RMK A01 T02320115  RH  048%=      5-min Rain = 0
KST1 200710Z 15006KT 23/12 A3005 RMK A01 T02320117  RH  049%=      5-min Rain = 0
KST1 200715Z 15006KT 24/12 A3005 RMK A01 T02350121  RH  049%=      5-min Rain = 0
KST1 200720Z 15005KT 24/12 A3005 RMK A01 T02370122  RH  049%=      5-min Rain = 0
KST1 200725Z 15004KT 23/12 A3005 RMK A01 T02320119  RH  050%=      5-min Rain = 0
KST1 200730Z 13003KT 23/12 A3005 RMK A01 T02320118  RH  050%=      5-min Rain = 0
KST1 200735Z 12003KT 23/12 A3005 RMK A01 T02330119  RH  050%=      5-min Rain = 0
KST1 200740Z 12003KT 23/12 A3005 RMK A01 T02300121  RH  051%=      5-min Rain = 0
KST1 200745Z 12003KT 23/12 A3005 RMK A01 T02290120  RH  051%=      5-min Rain = 0
KST1 200750Z 12003KT 23/12 A3005 RMK A01 T02290121  RH  052%=      5-min Rain = 0
KST1 200755Z 12004KT 23/12 A3005 RMK A01 T02300124  RH  052%=      5-min Rain = 0
KST1 200800Z 12005KT 23/13 A3005 RMK A01 T02280126  RH  054%=      5-min Rain = 0
KST1 200805Z 13005KT 23/13 A3005 RMK A01 T02270129  RH  055%=      5-min Rain = 0
KST1 200810Z 13006KT 23/13 A3005 RMK A01 T02260130  RH  056%=      5-min Rain = 0
KST1 200815Z 13006KT 23/13 A3005 RMK A01 T02260132  RH  056%=      5-min Rain = 0
KST1 200820Z 14006KT 23/13 A3005 RMK A01 T02270133  RH  056%=      5-min Rain = 0
KST1 200825Z 14006KT 23/13 A3005 RMK A01 T02280133  RH  056%=      5-min Rain = 0
KST1 200830Z 14006KT 23/13 A3005 RMK A01 T02280133  RH  056%=      5-min Rain = 0
KST1 200835Z 14006KT 23/13 A3005 RMK A01 T02280133  RH  056%=      5-min Rain = 0
KST1 200840Z 14006KT 23/13 A3005 RMK A01 T02290134  RH  056%=      5-min Rain = 0
KST1 200845Z 15006KT 23/14 A3005 RMK A01 T02290135  RH  056%=      5-min Rain = 0
KST1 200850Z 18004KT 23/14 A3005 RMK A01 T02310136  RH  056%=      5-min Rain = 0
KST1 200855Z 23003KT 23/13 A3005 RMK A01 T02270130  RH  056%=      5-min Rain = 0
KST1 200900Z 23003KT 23/13 A3005 RMK A01 T02270130  RH  055%=      5-min Rain = 0
KST1 200905Z 22003KT 23/13 A3006 RMK A01 T02250131  RH  056%=      5-min Rain = 0
KST1 200910Z 21004KT 22/13 A3006 RMK A01 T02240131  RH  057%=      5-min Rain = 0
KST1 200915Z 19004KT 23/14 A3006 RMK A01 T02270136  RH  057%=      5-min Rain = 0
KST1 200920Z 18005KT 24/14 A3006 RMK A01 T02360144  RH  057%=      5-min Rain = 0
KST1 200925Z 17005KT 24/14 A3006 RMK A01 T02390144  RH  057%=      5-min Rain = 0
KST1 200930Z 17005KT 24/15 A3006 RMK A01 T02400147  RH  057%=      5-min Rain = 0
KST1 200935Z 17005KT 24/15 A3006 RMK A01 T02410148  RH  057%=      5-min Rain = 0
KST1 200940Z 17006KT 24/15 A3006 RMK A01 T02420150  RH  057%=      5-min Rain = 0
KST1 200945Z 16007KT 25/15 A3006 RMK A01 T02450152  RH  057%=      5-min Rain = 0
KST1 200950Z 16007KT 25/15 A3006 RMK A01 T02460153  RH  057%=      5-min Rain = 0
KST1 200955Z 16007KT 25/15 A3006 RMK A01 T02470154  RH  057%=      5-min Rain = 0
KST1 201000Z 16007KT 25/15 A3006 RMK A01 T02450154  RH  058%=      5-min Rain = 0
KST1 201005Z 16006KT 25/15 A3006 RMK A01 T02450154  RH  058%=      5-min Rain = 0
KST1 201010Z 16006KT 24/16 A3007 RMK A01 T02440155  RH  059%=      5-min Rain = 0
KST1 201015Z 16006KT 24/16 A3007 RMK A01 T02430155  RH  059%=      5-min Rain = 0
KST1 201020Z 16006KT 24/16 A3007 RMK A01 T02430156  RH  060%=      5-min Rain = 0
KST1 201025Z 16006KT 24/16 A3007 RMK A01 T02420156  RH  060%=      5-min Rain = 0
KST1 201030Z 15006KT 24/16 A3007 RMK A01 T02410156  RH  060%=      5-min Rain = 0
KST1 201035Z 15005KT 24/16 A3007 RMK A01 T02380155  RH  061%=      5-min Rain = 0
KST1 201040Z 15006KT 24/16 A3007 RMK A01 T02360155  RH  062%=      5-min Rain = 0
KST1 201045Z 15006KT 24/16 A3007 RMK A01 T02350156  RH  062%=      5-min Rain = 0
KST1 201050Z 15006KT 23/16 A3007 RMK A01 T02340155  RH  063%=      5-min Rain = 0
KST1 201055Z 15006KT 23/16 A3007 RMK A01 T02340156  RH  063%=      5-min Rain = 0
KST1 201100Z 15007KT 23/16 A3007 RMK A01 T02340157  RH  063%=      5-min Rain = 0
KST1 201105Z 15006KT 23/16 A3007 RMK A01 T02340158  RH  063%=      5-min Rain = 0
KST1 201110Z 15006KT 23/16 A3007 RMK A01 T02340158  RH  064%=      5-min Rain = 0
KST1 201115Z 15006KT 24/16 A3007 RMK A01 T02350159  RH  064%=      5-min Rain = 0
KST1 201120Z 15006KT 23/16 A3007 RMK A01 T02340159  RH  064%=      5-min Rain = 0
KST1 201125Z 15005KT 23/16 A3007 RMK A01 T02330159  RH  065%=      5-min Rain = 0
KST1 201130Z 14005KT 23/16 A3007 RMK A01 T02300159  RH  065%=      5-min Rain = 0
KST1 201135Z 14005KT 23/16 A3007 RMK A01 T02280159  RH  066%=      5-min Rain = 0
KST1 201140Z 14005KT 23/16 A3007 RMK A01 T02250158  RH  067%=      5-min Rain = 0
KST1 201145Z 14005KT 22/16 A3008 RMK A01 T02240159  RH  068%=      5-min Rain = 0
KST1 201150Z 15006KT 23/16 A3008 RMK A01 T02270162  RH  068%=      5-min Rain = 0
KST1 201155Z 15006KT 23/16 A3008 RMK A01 T02280163  RH  068%=      5-min Rain = 0
KST1 201200Z 15005KT 23/16 A3008 RMK A01 T02270164  RH  069%=      5-min Rain = 0
KST1 201205Z 16005KT 23/16 A3008 RMK A01 T02260164  RH  069%=      5-min Rain = 0
KST1 201210Z 16005KT 23/17 A3008 RMK A01 T02260165  RH  070%=      5-min Rain = 0
KST1 201215Z 16005KT 23/17 A3008 RMK A01 T02250165  RH  070%=      5-min Rain = 0
KST1 201220Z 15005KT 22/16 A3008 RMK A01 T02240164  RH  071%=      5-min Rain = 0
KST1 201225Z 15005KT 22/16 A3008 RMK A01 T02220164  RH  071%=      5-min Rain = 0
KST1 201230Z 15005KT 22/17 A3008 RMK A01 T02220166  RH  072%=      5-min Rain = 0
KST1 201235Z 15005KT 22/17 A3009 RMK A01 T02220166  RH  072%=      5-min Rain = 0
KST1 201240Z 14005KT 22/17 A3009 RMK A01 T02220167  RH  073%=      5-min Rain = 0
KST1 201245Z 14005KT 22/17 A3009 RMK A01 T02240170  RH  073%=      5-min Rain = 0
KST1 201250Z 14004KT 23/17 A3009 RMK A01 T02270173  RH  073%=      5-min Rain = 0
KST1 201255Z 16004KT 23/18 A3009 RMK A01 T02310176  RH  073%=      5-min Rain = 0
KST1 201300Z 16004KT 24/18 A3009 RMK A01 T02350179  RH  073%=      5-min Rain = 0
KST1 201305Z 15004KT 24/18 A3009 RMK A01 T02390181  RH  072%=      5-min Rain = 0
KST1 201310Z 15005KT 24/19 A301 RMK A01 T02420185  RH  072%=      5-min Rain = 0
KST1 201315Z 16006KT 25/19 A301 RMK A01 T02450187  RH  072%=      5-min Rain = 0
KST1 201320Z 17005KT 25/19 A301 RMK A01 T02470189  RH  072%=      5-min Rain = 0
KST1 201325Z 17006KT 25/19 A301 RMK A01 T02480190  RH  072%=      5-min Rain = 0
KST1 201330Z 17006KT 25/19 A301 RMK A01 T02480191  RH  072%=      5-min Rain = 0
KST1 201335Z 16008KT 25/19 A301 RMK A01 T02500193  RH  072%=      5-min Rain = 0
KST1 201340Z 16009KT 25/20 A3009 RMK A01 T02540195  RH  072%=      5-min Rain = 0
KST1 201345Z 17010KT 26/20 A301 RMK A01 T02560197  RH  071%=      5-min Rain = 0
KST1 201350Z 17011KT 26/20 A301 RMK A01 T02580197  RH  071%=      5-min Rain = 0
KST1 201355Z 17011KT 26/20 A301 RMK A01 T02600198  RH  070%=      5-min Rain = 0
KST1 201400Z 16011KT 26/20 A301 RMK A01 T02620198  RH  070%=      5-min Rain = 0
KST1 201405Z 17013KT 26/20 A301 RMK A01 T02620197  RH  069%=      5-min Rain = 0
KST1 201410Z 17012KT 26/20 A301 RMK A01 T02640198  RH  069%=      5-min Rain = 0
KST1 201415Z 17010KT 27/20 A301 RMK A01 T02680199  RH  068%=      5-min Rain = 0
KST1 201420Z 18010G15KT 27/20 A301 RMK A01 T02700199  RH  067%=      5-min Rain = 0
KST1 201425Z 18012KT 27/20 A301 RMK A01 T02690198  RH  067%=      5-min Rain = 0
KST1 201430Z 18012KT 27/20 A301 RMK A01 T02700198  RH  067%=      5-min Rain = 0
KST1 201435Z 18011KT 27/20 A301 RMK A01 T02730199  RH  066%=      5-min Rain = 0
KST1 201440Z 18011KT 28/20 A3009 RMK A01 T02750199  RH  065%=      5-min Rain = 0
KST1 201445Z 17010KT 28/20 A3009 RMK A01 T02770200  RH  064%=      5-min Rain = 0
KST1 201450Z 17010KT 28/20 A301 RMK A01 T02810199  RH  063%=      5-min Rain = 0
KST1 201455Z 18011KT 28/20 A301 RMK A01 T02820198  RH  062%=      5-min Rain = 0
KST1 201500Z 18011KT 29/20 A301 RMK A01 T02850196  RH  060%=      5-min Rain = 0
KST1 201505Z 18011KT 29/20 A301 RMK A01 T02860196  RH  060%=      5-min Rain = 0
KST1 201510Z 18011KT 29/20 A301 RMK A01 T02870196  RH  059%=      5-min Rain = 0
KST1 201515Z 17010KT 29/20 A301 RMK A01 T02900196  RH  059%=      5-min Rain = 0
KST1 201520Z 18009KT 29/20 A301 RMK A01 T02930196  RH  058%=      5-min Rain = 0
KST1 201525Z 18010KT 30/19 A301 RMK A01 T02960193  RH  056%=      5-min Rain = 0
KST1 201530Z 19010G16KT 30/19 A301 RMK A01 T02950191  RH  055%=      5-min Rain = 0
KST1 201535Z 19009G14KT 30/19 A301 RMK A01 T02960191  RH  055%=      5-min Rain = 0
KST1 201540Z 18009KT 30/19 A301 RMK A01 T03020193  RH  053%=      5-min Rain = 0
KST1 201545Z 18009KT 30/19 A301 RMK A01 T03020191  RH  053%=      5-min Rain = 0
KST1 201550Z 17010KT 30/19 A301 RMK A01 T03030190  RH  052%=      5-min Rain = 0
KST1 201555Z 17010KT 31/19 A3011 RMK A01 T03070190  RH  051%=      5-min Rain = 0
KST1 201600Z 19008G13KT 31/19 A3011 RMK A01 T03050187  RH  050%=      5-min Rain = 0
KST1 201605Z 17010KT 31/19 A3011 RMK A01 T03110188  RH  049%=      5-min Rain = 0
KST1 201610Z 18009G14KT 31/19 A3011 RMK A01 T03110186  RH  049%=      5-min Rain = 0
KST1 201615Z 18010KT 31/18 A3011 RMK A01 T03090183  RH  048%=      5-min Rain = 0
KST1 201620Z 17009G14KT 31/18 A3011 RMK A01 T03130184  RH  047%=      5-min Rain = 0
KST1 201625Z 17010KT 31/19 A3011 RMK A01 T03140185  RH  047%=      5-min Rain = 0
KST1 201630Z 15009KT 32/19 A3011 RMK A01 T03170185  RH  046%=      5-min Rain = 0
KST1 201635Z 18009KT 32/18 A3011 RMK A01 T03180180  RH  045%=      5-min Rain = 0
KST1 201640Z 15009KT 32/18 A3011 RMK A01 T03200182  RH  045%=      5-min Rain = 0
KST1 201645Z 16009G15KT 32/18 A3011 RMK A01 T03220181  RH  044%=      5-min Rain = 0
KST1 201650Z 15009KT 32/18 A3011 RMK A01 T03240178  RH  043%=      5-min Rain = 0
KST1 201655Z 15008KT 32/17 A3011 RMK A01 T03210174  RH  042%=      5-min Rain = 0
KST1 201700Z 16007KT 32/18 A3011 RMK A01 T03240179  RH  043%=      5-min Rain = 0
KST1 201705Z 17009G16KT 32/18 A3011 RMK A01 T03180175  RH  044%=      5-min Rain = 0
KST1 201710Z 17010KT 32/17 A3011 RMK A01 T03240172  RH  041%=      5-min Rain = 0
KST1 201715Z 16009G14KT 33/17 A3011 RMK A01 T03280172  RH  040%=      5-min Rain = 0
KST1 201720Z 15008G15KT 33/17 A3011 RMK A01 T03300171  RH  040%=      5-min Rain = 0
KST1 201725Z 16009KT 32/17 A3011 RMK A01 T03240173  RH  041%=      5-min Rain = 0
KST1 201730Z 15010KT 33/18 A301 RMK A01 T03280175  RH  041%=      5-min Rain = 0
KST1 201735Z 18008G13KT 33/17 A301 RMK A01 T03260171  RH  041%=      5-min Rain = 0
KST1 201740Z 12009G15KT 33/17 A301 RMK A01 T03290170  RH  040%=      5-min Rain = 0
KST1 201745Z 14012G18KT 33/17 A301 RMK A01 T03300167  RH  039%=      5-min Rain = 0
KST1 201750Z 13010G15KT 33/17 A301 RMK A01 T03330169  RH  038%=      5-min Rain = 0
KST1 201755Z 14009G14KT 33/17 A301 RMK A01 T03330168  RH  038%=      5-min Rain = 0
KST1 201800Z 16008G14KT 33/17 A301 RMK A01 T03320167  RH  038%=      5-min Rain = 0
KST1 201805Z 15009G14KT 34/17 A301 RMK A01 T03370170  RH  038%=      5-min Rain = 0
KST1 201810Z 13008G13KT 34/17 A301 RMK A01 T03350168  RH  038%=      5-min Rain = 0
KST1 201815Z 14009G16KT 34/17 A301 RMK A01 T03420172  RH  037%=      5-min Rain = 0
KST1 201820Z 14010G15KT 34/17 A3009 RMK A01 T03390167  RH  037%=      5-min Rain = 0
KST1 201825Z 10008G13KT 34/17 A3009 RMK A01 T03380166  RH  037%=      5-min Rain = 0
KST1 201830Z 15010KT 34/17 A3009 RMK A01 T03400167  RH  037%=      5-min Rain = 0
KST1 201835Z 15005KT 33/17 A3009 RMK A01 T03340165  RH  037%=      5-min Rain = 0
KST1 201840Z 12009G16KT 34/17 A3009 RMK A01 T03420166  RH  036%=      5-min Rain = 0
KST1 201845Z 14010KT 34/16 A3009 RMK A01 T03400161  RH  035%=      5-min Rain = 0
KST1 201850Z 14007G12KT 34/16 A3009 RMK A01 T03420160  RH  034%=      5-min Rain = 0
KST1 201855Z 13009G15KT 34/16 A3009 RMK A01 T03440163  RH  035%=      5-min Rain = 0
KST1 201900Z 12005KT 34/16 A3008 RMK A01 T03420161  RH  035%=      5-min Rain = 0
KST1 201905Z 15011G18KT 35/16 A3008 RMK A01 T03450162  RH  034%=      5-min Rain = 0
KST1 201910Z 17009G14KT 35/16 A3008 RMK A01 T03460160  RH  034%=      5-min Rain = 0
KST1 201915Z 19008KT 34/16 A3008 RMK A01 T03420158  RH  034%=      5-min Rain = 0
KST1 201920Z 13010KT 35/16 A3008 RMK A01 T03460159  RH  034%=      5-min Rain = 0
KST1 201925Z 12009G14KT 34/16 A3008 RMK A01 T03430155  RH  033%=      5-min Rain = 0
KST1 201930Z 12010KT 34/16 A3007 RMK A01 T03440159  RH  034%=      5-min Rain = 0
KST1 201935Z 10005G10KT 35/16 A3007 RMK A01 T03470157  RH  033%=      5-min Rain = 0
KST1 201940Z 12010G15KT 35/16 A3007 RMK A01 T03490155  RH  032%=      5-min Rain = 0
KST1 201945Z 14011G18KT 35/16 A3007 RMK A01 T03530159  RH  032%=      5-min Rain = 0
KST1 201950Z 13011G16KT 35/15 A3007 RMK A01 T03510154  RH  032%=      5-min Rain = 0
KST1 201955Z 14008G13KT 35/16 A3007 RMK A01 T03520157  RH  032%=      5-min Rain = 0
KST1 202000Z 13008G13KT 34/15 A3007 RMK A01 T03440151  RH  032%=      5-min Rain = 0
KST1 202005Z 12012G19KT 35/15 A3006 RMK A01 T03480145  RH  030%=      5-min Rain = 0
KST1 202010Z 13010G17KT 35/15 A3006 RMK A01 T03530146  RH  030%=      5-min Rain = 0
KST1 202015Z 14008G13KT 36/14 A3006 RMK A01 T03550141  RH  028%=      5-min Rain = 0
KST1 202020Z 16008G15KT 36/15 A3006 RMK A01 T03560148  RH  030%=      5-min Rain = 0
KST1 202025Z 18010G16KT 36/14 A3005 RMK A01 T03580144  RH  029%=      5-min Rain = 0
KST1 202030Z 14011G17KT 36/15 A3005 RMK A01 T03590145  RH  028%=      5-min Rain = 0
KST1 202035Z 15007G14KT 36/14 A3005 RMK A01 T03550135  RH  027%=      5-min Rain = 0
KST1 202040Z 16010KT 36/14 A3005 RMK A01 T03570138  RH  028%=      5-min Rain = 0
KST1 202045Z 17008G15KT 36/14 A3005 RMK A01 T03560135  RH  027%=      5-min Rain = 0
KST1 202050Z 16009G14KT 36/14 A3004 RMK A01 T03600137  RH  027%=      5-min Rain = 0
KST1 202055Z 14010G16KT 36/14 A3004 RMK A01 T03580137  RH  027%=      5-min Rain = 0
KST1 202100Z 16010G15KT 36/13 A3004 RMK A01 T03580129  RH  026%=      5-min Rain = 0
KST1 202105Z 15009KT 36/14 A3004 RMK A01 T03610139  RH  027%=      5-min Rain = 0
KST1 202110Z 11007G12KT 36/14 A3003 RMK A01 T03580140  RH  028%=      5-min Rain = 0
KST1 202115Z 12011G16KT 36/14 A3003 RMK A01 T03600140  RH  028%=      5-min Rain = 0
KST1 202120Z 13009G14KT 36/14 A3003 RMK A01 T03590135  RH  027%=      5-min Rain = 0
KST1 202125Z 14004KT 36/13 A3003 RMK A01 T03600134  RH  026%=      5-min Rain = 0
KST1 202130Z 16007G13KT 36/13 A3003 RMK A01 T03630131  RH  025%=      5-min Rain = 0
KST1 202135Z 17008G14KT 36/14 A3003 RMK A01 T03610135  RH  026%=      5-min Rain = 0
KST1 202140Z 11008G13KT 37/13 A3003 RMK A01 T03650131  RH  025%=      5-min Rain = 0
KST1 202145Z 13008KT 36/13 A3003 RMK A01 T03620130  RH  025%=      5-min Rain = 0
KST1 202150Z 14007KT 35/13 A3003 RMK A01 T03540130  RH  027%=      5-min Rain = 0
KST1 202155Z 09010KT 36/13 A3002 RMK A01 T03580128  RH  026%=      5-min Rain = 0
KST1 202200Z 10009G14KT 36/13 A3002 RMK A01 T03610125  RH  025%=      5-min Rain = 0
KST1 202205Z 13006G11KT 36/13 A3002 RMK A01 T03610127  RH  025%=      5-min Rain = 0
KST1 202210Z 14012G18KT 36/13 A3002 RMK A01 T03640134  RH  026%=      5-min Rain = 0
KST1 202215Z 13010G15KT 36/13 A3002 RMK A01 T03580127  RH  025%=      5-min Rain = 0
KST1 202220Z 15009KT 36/12 A3002 RMK A01 T03560119  RH  024%=      5-min Rain = 0
KST1 202225Z 15009KT 35/12 A3002 RMK A01 T03520124  RH  026%=      5-min Rain = 0
KST1 202230Z 12007G13KT 35/12 A3002 RMK A01 T03500123  RH  026%=      5-min Rain = 0
KST1 202235Z 11012KT 36/12 A3002 RMK A01 T03550117  RH  024%=      5-min Rain = 0
KST1 202240Z 10010G15KT 35/11 A3002 RMK A01 T03500113  RH  024%=      5-min Rain = 0
KST1 202245Z 12009KT 35/12 A3002 RMK A01 T03460117  RH  025%=      5-min Rain = 0
KST1 202250Z 12007KT 35/12 A3002 RMK A01 T03460121  RH  026%=      5-min Rain = 0
KST1 202255Z 13010KT 35/12 A3002 RMK A01 T03490121  RH  026%=      5-min Rain = 0
KST1 202300Z 14007KT 35/12 A3002 RMK A01 T03470123  RH  026%=      5-min Rain = 0
KST1 202305Z 14010KT 35/11 A3002 RMK A01 T03520114  RH  024%=      5-min Rain = 0
KST1 202310Z 13011KT 35/12 A3002 RMK A01 T03540115  RH  024%=      5-min Rain = 0
KST1 202315Z 12009KT 35/12 A3002 RMK A01 T03540121  RH  025%=      5-min Rain = 0
KST1 202320Z 14010KT 35/12 A3002 RMK A01 T03530116  RH  024%=      5-min Rain = 0
KST1 202325Z 12010G17KT 35/12 A3002 RMK A01 T03540115  RH  024%=      5-min Rain = 0
KST1 202330Z 13010KT 35/11 A3002 RMK A01 T03540108  RH  023%=      5-min Rain = 0
KST1 202335Z 11009G14KT 36/12 A3001 RMK A01 T03550115  RH  024%=      5-min Rain = 0
KST1 202340Z 11009KT 35/12 A3001 RMK A01 T03530119  RH  025%=      5-min Rain = 0
KST1 202345Z 11010G16KT 35/12 A3001 RMK A01 T03530122  RH  025%=      5-min Rain = 0
KST1 202350Z 10013KT 35/12 A3001 RMK A01 T03510121  RH  025%=      5-min Rain = 0
KST1 202355Z 11011KT 35/12 A3001 RMK A01 T03500117  RH  025%=      5-min Rain = 0
KST1 210000Z 12010KT 35/12 A3001 RMK A01 T03480117  RH  025%=      5-min Rain = 0
KST1 210005Z 12010KT 35/12 A3001 RMK A01 T03470118  RH  025%=      5-min Rain = 0
KST1 210010Z 12009KT 35/12 A3001 RMK A01 T03460115  RH  025%=      5-min Rain = 0
KST1 210015Z 12011KT 35/12 A3001 RMK A01 T03450121  RH  026%=      5-min Rain = 0
KST1 210020Z 12011KT 34/12 A3001 RMK A01 T03440124  RH  027%=      5-min Rain = 0
KST1 210025Z 13011KT 34/12 A3001 RMK A01 T03430124  RH  027%=      5-min Rain = 0
KST1 210030Z 13011KT 34/13 A3001 RMK A01 T03410125  RH  028%=      5-min Rain = 0
KST1 210035Z 12011G16KT 34/12 A3001 RMK A01 T03400124  RH  028%=      5-min Rain = 0
KST1 210040Z 12011KT 34/12 A3002 RMK A01 T03380122  RH  028%=      5-min Rain = 0
KST1 210045Z 11010KT 34/12 A3002 RMK A01 T03370120  RH  027%=      5-min Rain = 0
KST1 210050Z 11011KT 34/12 A3002 RMK A01 T03360117  RH  027%=      5-min Rain = 0
KST1 210055Z 11010KT 34/11 A3002 RMK A01 T03350114  RH  026%=      5-min Rain = 0
KST1 210100Z 12010KT 33/12 A3002 RMK A01 T03330115  RH  027%=      5-min Rain = 0
KST1 210105Z 12011KT 33/12 A3002 RMK A01 T03320118  RH  028%=      5-min Rain = 0
KST1 210110Z 11009KT 33/12 A3002 RMK A01 T03310118  RH  028%=      5-min Rain = 0
KST1 210115Z 11009KT 33/12 A3002 RMK A01 T03290117  RH  028%=      5-min Rain = 0
KST1 210120Z 11009KT 33/12 A3002 RMK A01 T03280116  RH  028%=      5-min Rain = 0
KST1 210125Z 11008KT 33/12 A3002 RMK A01 T03270115  RH  028%=      5-min Rain = 0
KST1 210130Z 11009KT 33/12 A3002 RMK A01 T03250116  RH  029%=      5-min Rain = 0
KST1 210135Z 11009KT 32/12 A3002 RMK A01 T03240119  RH  029%=      5-min Rain = 0
KST1 210140Z 11009KT 32/12 A3003 RMK A01 T03230120  RH  030%=      5-min Rain = 0
KST1 210145Z 11010KT 32/12 A3003 RMK A01 T03220122  RH  030%=      5-min Rain = 0
KST1 210150Z 11009G14KT 32/12 A3003 RMK A01 T03200122  RH  030%=      5-min Rain = 0
KST1 210155Z 11010KT 32/12 A3003 RMK A01 T03190123  RH  031%=      5-min Rain = 0
KST1 210200Z 11009G14KT 32/12 A3003 RMK A01 T03180124  RH  031%=      5-min Rain = 0
KST1 210205Z 11009KT 32/12 A3003 RMK A01 T03170124  RH  031%=      5-min Rain = 0
KST1 210210Z 11008KT 32/13 A3003 RMK A01 T03160125  RH  032%=      5-min Rain = 0
KST1 210215Z 11009KT 31/13 A3004 RMK A01 T03140125  RH  032%=      5-min Rain = 0
KST1 210220Z 11008KT 31/12 A3004 RMK A01 T03120124  RH  032%=      5-min Rain = 0
KST1 210225Z 11009KT 31/12 A3004 RMK A01 T03120123  RH  032%=      5-min Rain = 0
KST1 210230Z 11008KT 31/12 A3004 RMK A01 T03100123  RH  032%=      5-min Rain = 0
KST1 210235Z 11008KT 31/12 A3004 RMK A01 T03080122  RH  033%=      5-min Rain = 0
KST1 210240Z 11008KT 31/12 A3004 RMK A01 T03070122  RH  033%=      5-min Rain = 0
KST1 210245Z 11008KT 31/12 A3004 RMK A01 T03050121  RH  033%=      5-min Rain = 0
KST1 210250Z 11008KT 30/12 A3004 RMK A01 T03040121  RH  033%=      5-min Rain = 0
KST1 210255Z 11008KT 30/12 A3005 RMK A01 T03030120  RH  033%=      5-min Rain = 0
KST1 210300Z 11008KT 30/12 A3005 RMK A01 T03020120  RH  033%=      5-min Rain = 0
KST1 210305Z 11007KT 30/12 A3005 RMK A01 T03010120  RH  033%=      5-min Rain = 0
KST1 210310Z 11007KT 30/12 A3005 RMK A01 T02980120  RH  034%=      5-min Rain = 0
KST1 210315Z 11007KT 30/12 A3005 RMK A01 T02970119  RH  034%=      5-min Rain = 0
KST1 210320Z 12006KT 29/12 A3006 RMK A01 T02940119  RH  035%=      5-min Rain = 0
KST1 210325Z 12006KT 29/12 A3006 RMK A01 T02920119  RH  035%=      5-min Rain = 0
KST1 210330Z 12007KT 29/12 A3006 RMK A01 T02900119  RH  035%=      5-min Rain = 0
KST1 210335Z 11007KT 29/12 A3006 RMK A01 T02890119  RH  036%=      5-min Rain = 0
KST1 210340Z 12006KT 29/12 A3006 RMK A01 T02870119  RH  036%=      5-min Rain = 0
KST1 210345Z 12006KT 29/12 A3006 RMK A01 T02850119  RH  036%=      5-min Rain = 0
KST1 210350Z 13006KT 28/12 A3006 RMK A01 T02830119  RH  037%=      5-min Rain = 0
KST1 210355Z 13006KT 28/12 A3006 RMK A01 T02820119  RH  037%=      5-min Rain = 0
KST1 210400Z 13006KT 28/12 A3006 RMK A01 T02790118  RH  038%=      5-min Rain = 0
KST1 210405Z 13006KT 28/12 A3006 RMK A01 T02760118  RH  038%=      5-min Rain = 0
KST1 210410Z 13006KT 27/12 A3006 RMK A01 T02740119  RH  039%=      5-min Rain = 0
KST1 210415Z 13006KT 27/12 A3006 RMK A01 T02720119  RH  039%=      5-min Rain = 0
KST1 210420Z 13006KT 27/12 A3006 RMK A01 T02710119  RH  040%=      5-min Rain = 0
KST1 210425Z 13006KT 27/12 A3006 RMK A01 T02680118  RH  040%=      5-min Rain = 0
KST1 210430Z 13006KT 27/12 A3006 RMK A01 T02650118  RH  041%=      5-min Rain = 0
KST1 210435Z 13006KT 26/12 A3006 RMK A01 T02620118  RH  041%=      5-min Rain = 0
KST1 210440Z 13006KT 26/12 A3007 RMK A01 T02600118  RH  042%=      5-min Rain = 0
KST1 210445Z 14006KT 26/12 A3007 RMK A01 T02570117  RH  043%=      5-min Rain = 0
KST1 210450Z 13006KT 25/12 A3007 RMK A01 T02540117  RH  043%=      5-min Rain = 0
KST1 210455Z 14006KT 25/12 A3007 RMK A01 T02520117  RH  044%=      5-min Rain = 0

Page generated in 0.0169 seconds.